createdAt,value
2018-01-03T00:00:18.665Z,5.08
2018-01-03T00:01:18.659Z,4.98
2018-01-03T00:02:18.655Z,5.00
2018-01-03T00:03:18.650Z,4.87
2018-01-03T00:04:18.644Z,4.87
2018-01-03T00:05:18.638Z,4.89
2018-01-03T00:06:18.633Z,4.87
2018-01-03T00:07:18.629Z,4.84
2018-01-03T00:08:18.627Z,4.90
2018-01-03T00:09:18.617Z,4.87
2018-01-03T00:10:18.612Z,4.82
2018-01-03T00:11:18.608Z,4.89
2018-01-03T00:12:18.602Z,4.92
2018-01-03T00:13:18.598Z,4.92
2018-01-03T00:14:18.589Z,4.87
2018-01-03T00:15:18.586Z,4.97
2018-01-03T00:16:18.581Z,4.95
2018-01-03T00:17:18.622Z,4.97
2018-01-03T00:18:18.569Z,5.04
2018-01-03T00:19:18.564Z,5.01
2018-01-03T00:20:18.558Z,5.05
2018-01-03T00:21:18.553Z,5.20
2018-01-03T00:22:18.548Z,5.19
2018-01-03T00:23:18.544Z,5.13
2018-01-03T00:24:18.539Z,5.23
2018-01-03T00:25:18.542Z,5.16
2018-01-03T00:26:18.527Z,5.23
2018-01-03T00:27:18.522Z,5.31
2018-01-03T00:28:18.519Z,5.37
2018-01-03T00:29:18.511Z,5.36
2018-01-03T00:30:18.506Z,5.38
2018-01-03T00:31:18.502Z,5.46
2018-01-03T00:32:18.497Z,5.47
2018-01-03T00:33:18.490Z,5.47
2018-01-03T00:34:18.487Z,5.58
2018-01-03T00:35:18.480Z,5.44
2018-01-03T00:36:18.476Z,5.55
2018-01-03T00:37:18.469Z,5.54
2018-01-03T00:38:18.464Z,5.52
2018-01-03T00:39:18.461Z,5.54
2018-01-03T00:40:18.456Z,5.47
2018-01-03T00:41:18.449Z,5.51
2018-01-03T00:42:18.447Z,5.56
2018-01-03T00:43:18.439Z,5.58
2018-01-03T00:44:18.434Z,5.61
2018-01-03T00:45:18.429Z,5.52
2018-01-03T00:46:18.424Z,5.49
2018-01-03T00:47:18.419Z,5.46
2018-01-03T00:48:18.414Z,5.62
2018-01-03T00:49:18.408Z,5.52
2018-01-03T00:50:18.404Z,5.56
2018-01-03T00:51:18.398Z,5.51
2018-01-03T00:52:18.394Z,5.56
2018-01-03T00:53:18.388Z,5.47
2018-01-03T00:54:18.385Z,5.36
2018-01-03T00:55:18.380Z,5.10
2018-01-03T00:56:18.378Z,5.07
2018-01-03T00:57:18.367Z,4.98
2018-01-03T00:58:18.362Z,5.00
2018-01-03T00:59:18.357Z,5.02
2018-01-03T01:00:18.352Z,5.01
2018-01-03T01:01:18.347Z,4.87
2018-01-03T01:02:18.343Z,4.89
2018-01-03T01:03:18.336Z,4.87
2018-01-03T01:04:18.331Z,4.84
2018-01-03T01:05:18.325Z,4.76
2018-01-03T01:06:18.320Z,4.68
2018-01-03T01:07:18.315Z,4.67
2018-01-03T01:08:18.309Z,4.63
2018-01-03T01:09:18.304Z,4.71
2018-01-03T01:10:18.298Z,4.66
2018-01-03T01:11:18.293Z,4.60
2018-01-03T01:12:18.288Z,4.56
2018-01-03T01:13:18.281Z,4.52
2018-01-03T01:14:18.277Z,4.30
2018-01-03T01:15:18.272Z,4.20
2018-01-03T01:16:18.267Z,4.10
2018-01-03T01:17:18.259Z,3.95
2018-01-03T01:18:18.254Z,3.91
2018-01-03T01:19:18.249Z,3.85
2018-01-03T01:20:18.244Z,3.74
2018-01-03T01:21:18.238Z,3.71
2018-01-03T01:22:18.231Z,3.71
2018-01-03T01:23:18.231Z,3.70
2018-01-03T01:24:18.225Z,3.58
2018-01-03T01:25:18.214Z,3.58
2018-01-03T01:26:18.208Z,3.59
2018-01-03T01:27:18.202Z,3.58
2018-01-03T01:28:18.196Z,3.67
2018-01-03T01:29:18.191Z,3.61
2018-01-03T01:30:18.186Z,3.61
2018-01-03T01:31:18.178Z,3.55
2018-01-03T01:32:18.181Z,3.52
2018-01-03T01:33:18.168Z,3.34
2018-01-03T01:34:18.159Z,3.48
2018-01-03T01:35:18.154Z,3.55
2018-01-03T01:36:18.148Z,3.59
2018-01-03T01:37:18.141Z,3.61
2018-01-03T01:38:18.135Z,3.66
2018-01-03T01:39:18.130Z,3.66
2018-01-03T01:40:18.123Z,3.73
2018-01-03T01:41:18.116Z,3.58
2018-01-03T01:42:18.110Z,3.48
2018-01-03T01:43:18.104Z,3.50
2018-01-03T01:44:18.099Z,3.34
2018-01-03T01:45:18.092Z,3.40
2018-01-03T01:46:18.085Z,3.53
2018-01-03T01:47:18.080Z,3.64
2018-01-03T01:48:18.073Z,3.61
2018-01-03T01:49:18.066Z,3.61
2018-01-03T01:50:18.060Z,3.66
2018-01-03T01:51:18.055Z,3.59
2018-01-03T01:52:18.047Z,3.63
2018-01-03T01:53:18.040Z,3.82
2018-01-03T01:54:18.036Z,3.77
2018-01-03T01:55:18.029Z,3.67
2018-01-03T01:56:18.022Z,3.63
2018-01-03T01:57:18.016Z,3.67
2018-01-03T01:58:18.009Z,3.64
2018-01-03T01:59:18.004Z,3.58
2018-01-03T02:00:17.996Z,3.66
2018-01-03T02:01:17.989Z,3.70
2018-01-03T02:02:17.983Z,3.64
2018-01-03T02:03:17.976Z,3.64
2018-01-03T02:04:17.971Z,3.55
2018-01-03T02:05:17.966Z,3.46
2018-01-03T02:06:17.958Z,3.40
2018-01-03T02:07:17.953Z,3.40
2018-01-03T02:08:17.944Z,3.41
2018-01-03T02:09:17.937Z,3.43
2018-01-03T02:10:17.931Z,3.45
2018-01-03T02:11:17.926Z,3.45
2018-01-03T02:12:17.919Z,3.43
2018-01-03T02:13:17.912Z,3.56
2018-01-03T02:14:17.906Z,3.50
2018-01-03T02:15:17.898Z,3.45
2018-01-03T02:16:17.893Z,3.49
2018-01-03T02:17:17.887Z,3.58
2018-01-03T02:18:17.880Z,3.45
2018-01-03T02:19:17.873Z,3.56
2018-01-03T02:20:17.867Z,3.61
2018-01-03T02:21:17.859Z,3.64
2018-01-03T02:22:17.853Z,3.59
2018-01-03T02:23:17.847Z,3.73
2018-01-03T02:24:17.841Z,3.67
2018-01-03T02:25:17.833Z,3.70
2018-01-03T02:26:17.829Z,3.73
2018-01-03T02:27:17.822Z,3.74
2018-01-03T02:28:17.815Z,3.70
2018-01-03T02:29:17.808Z,3.73
2018-01-03T02:30:17.803Z,3.89
2018-01-03T02:31:17.796Z,3.81
2018-01-03T02:32:17.789Z,3.84
2018-01-03T02:33:17.783Z,3.82
2018-01-03T02:34:17.778Z,3.91
2018-01-03T02:35:17.819Z,3.84
2018-01-03T02:36:17.764Z,3.73
2018-01-03T02:37:17.757Z,3.71
2018-01-03T02:38:17.751Z,3.81
2018-01-03T02:39:17.745Z,3.73
2018-01-03T02:40:17.738Z,3.71
2018-01-03T02:41:17.732Z,3.70
2018-01-03T02:42:17.724Z,3.64
2018-01-03T02:43:17.720Z,3.66
2018-01-03T02:44:17.713Z,3.64
2018-01-03T02:45:17.706Z,3.68
2018-01-03T02:46:17.699Z,3.66
2018-01-03T02:47:17.693Z,3.70
2018-01-03T02:48:17.687Z,3.64
2018-01-03T02:49:17.679Z,3.61
2018-01-03T02:50:17.673Z,3.56
2018-01-03T02:51:17.668Z,3.48
2018-01-03T02:52:17.661Z,3.52
2018-01-03T02:53:17.654Z,3.55
2018-01-03T02:54:17.648Z,3.61
2018-01-03T02:55:17.642Z,3.70
2018-01-03T02:56:17.636Z,3.70
2018-01-03T02:57:17.629Z,3.76
2018-01-03T02:58:17.623Z,3.84
2018-01-03T02:59:17.616Z,3.91
2018-01-03T03:00:17.610Z,3.77
2018-01-03T03:01:17.603Z,3.85
2018-01-03T03:02:17.607Z,3.86
2018-01-03T03:03:17.591Z,3.76
2018-01-03T03:04:17.584Z,3.89
2018-01-03T03:05:17.576Z,3.84
2018-01-03T03:06:17.571Z,3.73
2018-01-03T03:07:17.564Z,3.84
2018-01-03T03:08:17.559Z,3.84
2018-01-03T03:09:17.551Z,3.84
2018-01-03T03:10:17.545Z,3.77
2018-01-03T03:11:17.540Z,3.73
2018-01-03T03:12:17.533Z,3.71
2018-01-03T03:13:17.525Z,3.71
2018-01-03T03:14:17.521Z,3.70
2018-01-03T03:15:17.513Z,3.63
2018-01-03T03:16:17.508Z,3.73
2018-01-03T03:17:17.501Z,3.67
2018-01-03T03:18:17.495Z,3.70
2018-01-03T03:19:17.489Z,3.71
2018-01-03T03:20:17.482Z,3.73
2018-01-03T03:21:17.475Z,3.67
2018-01-03T03:22:17.471Z,3.73
2018-01-03T03:23:17.463Z,3.84
2018-01-03T03:24:17.457Z,3.71
2018-01-03T03:25:17.449Z,3.74
2018-01-03T03:26:17.444Z,3.85
2018-01-03T03:27:17.438Z,3.85
2018-01-03T03:28:17.433Z,3.94
2018-01-03T03:29:17.481Z,3.91
2018-01-03T03:30:17.420Z,4.02
2018-01-03T03:31:17.420Z,4.02
2018-01-03T03:32:17.407Z,4.03
2018-01-03T03:33:17.400Z,4.06
2018-01-03T03:34:17.394Z,4.06
2018-01-03T03:35:17.388Z,4.10
2018-01-03T03:36:17.382Z,4.18
2018-01-03T03:37:17.376Z,4.10
2018-01-03T03:38:17.371Z,4.07
2018-01-03T03:39:17.364Z,4.09
2018-01-03T03:40:17.357Z,4.16
2018-01-03T03:41:17.351Z,4.13
2018-01-03T03:42:17.346Z,4.14
2018-01-03T03:43:17.339Z,4.21
2018-01-03T03:44:17.332Z,4.27
2018-01-03T03:45:17.325Z,4.31
2018-01-03T03:46:17.321Z,4.31
2018-01-03T03:47:17.314Z,4.30
2018-01-03T03:48:17.308Z,4.24
2018-01-03T03:49:17.301Z,4.32
2018-01-03T03:50:17.297Z,4.34
2018-01-03T03:51:17.290Z,4.30
2018-01-03T03:52:17.288Z,4.20
2018-01-03T03:53:17.277Z,4.18
2018-01-03T03:54:17.272Z,4.24
2018-01-03T03:55:17.268Z,4.25
2018-01-03T03:56:17.261Z,4.28
2018-01-03T03:57:17.255Z,4.25
2018-01-03T03:58:17.247Z,4.28
2018-01-03T03:59:17.245Z,4.32
2018-01-03T04:00:17.237Z,4.30
2018-01-03T04:01:17.230Z,4.27
2018-01-03T04:02:17.223Z,4.24
2018-01-03T04:03:17.219Z,4.28
2018-01-03T04:04:17.213Z,4.38
2018-01-03T04:05:17.205Z,4.45
2018-01-03T04:06:17.201Z,4.49
2018-01-03T04:07:17.194Z,4.50
2018-01-03T04:08:17.188Z,4.48
2018-01-03T04:09:17.181Z,4.43
2018-01-03T04:10:17.175Z,4.43
2018-01-03T04:11:17.170Z,4.52
2018-01-03T04:12:17.164Z,4.50
2018-01-03T04:13:17.158Z,4.57
2018-01-03T04:14:17.151Z,4.50
2018-01-03T04:15:17.147Z,4.46
2018-01-03T04:16:17.140Z,4.48
2018-01-03T04:17:17.134Z,4.53
2018-01-03T04:18:17.128Z,4.46
2018-01-03T04:19:17.124Z,4.52
2018-01-03T04:20:17.116Z,4.50
2018-01-03T04:21:17.110Z,4.52
2018-01-03T04:22:17.105Z,4.52
2018-01-03T04:23:17.099Z,4.53
2018-01-03T04:24:17.093Z,4.56
2018-01-03T04:25:17.087Z,4.52
2018-01-03T04:26:17.081Z,4.57
2018-01-03T04:27:17.075Z,4.61
2018-01-03T04:28:17.069Z,4.56
2018-01-03T04:29:17.063Z,4.61
2018-01-03T04:30:17.056Z,4.50
2018-01-03T04:31:17.052Z,4.48
2018-01-03T04:32:17.046Z,4.49
2018-01-03T04:33:17.038Z,4.48
2018-01-03T04:34:17.033Z,4.45
2018-01-03T04:35:17.028Z,4.53
2018-01-03T04:36:17.022Z,4.57
2018-01-03T04:37:17.015Z,4.52
2018-01-03T04:38:17.010Z,4.48
2018-01-03T04:39:17.004Z,4.42
2018-01-03T04:40:16.998Z,4.46
2018-01-03T04:41:16.991Z,4.50
2018-01-03T04:42:16.985Z,4.49
2018-01-03T04:43:16.980Z,4.60
2018-01-03T04:44:16.974Z,4.63
2018-01-03T04:45:16.969Z,4.66
2018-01-03T04:46:16.962Z,4.68
2018-01-03T04:47:16.957Z,4.68
2018-01-03T04:48:16.951Z,4.83
2018-01-03T04:49:16.946Z,4.75
2018-01-03T04:50:16.939Z,4.84
2018-01-03T04:51:16.933Z,4.75
2018-01-03T04:52:16.932Z,4.79
2018-01-03T04:53:16.923Z,4.86
2018-01-03T04:54:16.916Z,4.86
2018-01-03T04:55:16.910Z,4.79
2018-01-03T04:56:16.905Z,4.90
2018-01-03T04:57:16.898Z,4.90
2018-01-03T04:58:16.902Z,5.05
2018-01-03T04:59:16.888Z,4.95
2018-01-03T05:00:16.883Z,5.10
2018-01-03T05:01:16.877Z,5.13
2018-01-03T05:02:16.871Z,5.18
2018-01-03T05:03:16.866Z,5.23
2018-01-03T05:04:16.861Z,5.29
2018-01-03T05:05:16.855Z,5.31
2018-01-03T05:06:16.849Z,5.33
2018-01-03T05:07:16.847Z,5.29
2018-01-03T05:08:16.838Z,5.34
2018-01-03T05:09:16.833Z,5.26
2018-01-03T05:10:16.827Z,5.20
2018-01-03T05:11:16.822Z,5.04
2018-01-03T05:12:16.816Z,5.12
2018-01-03T05:13:16.809Z,5.00
2018-01-03T05:14:16.805Z,5.02
2018-01-03T05:15:16.801Z,5.05
2018-01-03T05:16:16.794Z,5.12
2018-01-03T05:17:16.789Z,5.05
2018-01-03T05:18:16.783Z,5.10
2018-01-03T05:19:16.778Z,5.12
2018-01-03T05:20:16.772Z,5.08
2018-01-03T05:21:16.766Z,5.18
2018-01-03T05:22:16.761Z,5.18
2018-01-03T05:23:16.756Z,5.15
2018-01-03T05:24:16.752Z,5.13
2018-01-03T05:25:16.744Z,5.15
2018-01-03T05:26:16.739Z,5.08
2018-01-03T05:27:16.734Z,5.15
2018-01-03T05:28:16.729Z,5.16
2018-01-03T05:29:16.723Z,5.20
2018-01-03T05:30:16.717Z,5.16
2018-01-03T05:31:16.712Z,5.08
2018-01-03T05:32:16.707Z,5.07
2018-01-03T05:33:16.700Z,5.04
2018-01-03T05:34:16.695Z,5.07
2018-01-03T05:35:16.691Z,5.07
2018-01-03T05:36:16.685Z,5.04
2018-01-03T05:37:16.679Z,5.04
2018-01-03T05:38:16.673Z,5.19
2018-01-03T05:39:16.669Z,5.56
2018-01-03T05:40:16.662Z,5.69
2018-01-03T05:41:16.658Z,5.79
2018-01-03T05:42:16.652Z,5.90
2018-01-03T05:43:16.647Z,5.83
2018-01-03T05:44:16.641Z,5.83
2018-01-03T05:45:16.635Z,5.81
2018-01-03T05:46:16.629Z,5.90
2018-01-03T05:47:16.625Z,5.74
2018-01-03T05:48:16.626Z,5.73
2018-01-03T05:49:16.614Z,5.59
2018-01-03T05:50:16.608Z,5.61
2018-01-03T05:51:16.603Z,5.61
2018-01-03T05:52:16.598Z,5.67
2018-01-03T05:53:16.591Z,5.69
2018-01-03T05:54:16.587Z,5.79
2018-01-03T05:55:16.582Z,5.83
2018-01-03T05:56:16.576Z,5.90
2018-01-03T05:57:16.570Z,5.99
2018-01-03T05:58:16.565Z,5.92
2018-01-03T05:59:16.560Z,6.07
2018-01-03T06:00:16.556Z,6.09
2018-01-03T06:01:16.547Z,6.02
2018-01-03T06:02:16.553Z,6.09
2018-01-03T06:03:16.538Z,6.05
2018-01-03T06:04:16.543Z,6.13
2018-01-03T06:05:16.527Z,6.15
2018-01-03T06:06:16.524Z,6.09
2018-01-03T06:07:16.516Z,6.01
2018-01-03T06:08:16.514Z,6.07
2018-01-03T06:09:16.507Z,6.10
2018-01-03T06:10:16.501Z,6.05
2018-01-03T06:11:16.496Z,5.84
2018-01-03T06:12:16.510Z,5.83
2018-01-03T06:13:16.484Z,5.84
2018-01-03T06:14:16.486Z,5.94
2018-01-03T06:15:16.474Z,6.01
2018-01-03T06:16:16.469Z,5.92
2018-01-03T06:17:16.462Z,5.87
2018-01-03T06:18:16.458Z,5.87
2018-01-03T06:19:16.454Z,5.97
2018-01-03T06:20:16.448Z,5.92
2018-01-03T06:21:16.442Z,6.01
2018-01-03T06:22:16.437Z,6.02
2018-01-03T06:23:16.433Z,6.01
2018-01-03T06:24:16.429Z,6.06
2018-01-03T06:25:16.469Z,6.01
2018-01-03T06:26:16.418Z,6.02
2018-01-03T06:27:16.413Z,5.99
2018-01-03T06:28:16.408Z,5.95
2018-01-03T06:29:16.403Z,5.83
2018-01-03T06:30:16.399Z,5.87
2018-01-03T06:31:16.392Z,5.76
2018-01-03T06:32:16.387Z,5.87
2018-01-03T06:33:16.383Z,5.84
2018-01-03T06:34:16.379Z,5.83
2018-01-03T06:35:16.372Z,5.91
2018-01-03T06:36:16.367Z,5.94
2018-01-03T06:37:16.361Z,5.94
2018-01-03T06:38:16.356Z,5.92
2018-01-03T06:39:16.352Z,6.02
2018-01-03T06:40:16.348Z,5.99
2018-01-03T06:41:16.341Z,6.01
2018-01-03T06:42:16.336Z,6.06
2018-01-03T06:43:16.332Z,6.12
2018-01-03T06:44:16.328Z,6.22
2018-01-03T06:45:16.321Z,6.29
2018-01-03T06:46:16.316Z,6.38
2018-01-03T06:47:16.311Z,6.43
2018-01-03T06:48:16.307Z,6.38
2018-01-03T06:49:16.301Z,6.36
2018-01-03T06:50:16.296Z,6.38
2018-01-03T06:51:16.291Z,6.38
2018-01-03T06:52:16.291Z,6.50
2018-01-03T06:53:16.282Z,6.49
2018-01-03T06:54:16.277Z,6.46
2018-01-03T06:55:16.273Z,6.39
2018-01-03T06:56:16.268Z,6.44
2018-01-03T06:57:16.263Z,6.36
2018-01-03T06:58:16.258Z,6.38
2018-01-03T06:59:16.254Z,6.39
2018-01-03T07:00:16.249Z,6.41
2018-01-03T07:01:16.243Z,6.38
2018-01-03T07:02:16.238Z,6.52
2018-01-03T07:03:16.233Z,6.41
2018-01-03T07:04:16.230Z,6.49
2018-01-03T07:05:16.225Z,6.41
2018-01-03T07:06:16.220Z,6.39
2018-01-03T07:07:16.217Z,6.39
2018-01-03T07:08:16.211Z,6.47
2018-01-03T07:09:16.205Z,6.39
2018-01-03T07:10:16.202Z,6.46
2018-01-03T07:11:16.197Z,6.54
2018-01-03T07:12:16.192Z,6.46
2018-01-03T07:13:16.188Z,6.56
2018-01-03T07:14:16.182Z,6.68
2018-01-03T07:15:16.177Z,6.60
2018-01-03T07:16:16.173Z,6.65
2018-01-03T07:17:16.167Z,6.72
2018-01-03T07:18:16.163Z,6.85
2018-01-03T07:19:16.158Z,6.83
2018-01-03T07:20:16.155Z,7.14
2018-01-03T07:21:16.148Z,7.25
2018-01-03T07:22:16.144Z,7.39
2018-01-03T07:23:16.143Z,7.37
2018-01-03T07:24:16.135Z,7.41
2018-01-03T07:25:16.130Z,7.50
2018-01-03T07:26:16.125Z,7.43
2018-01-03T07:27:16.121Z,7.41
2018-01-03T07:28:16.116Z,7.46
2018-01-03T07:29:16.111Z,7.43
2018-01-03T07:30:16.108Z,7.40
2018-01-03T07:31:16.103Z,7.46
2018-01-03T07:32:16.099Z,7.47
2018-01-03T07:33:16.094Z,7.55
2018-01-03T07:34:16.089Z,7.55
2018-01-03T07:35:16.086Z,7.67
2018-01-03T07:36:16.080Z,7.74
2018-01-03T07:37:16.075Z,7.77
2018-01-03T07:38:16.071Z,7.84
2018-01-03T07:39:16.066Z,7.90
2018-01-03T07:40:16.064Z,8.06
2018-01-03T07:41:16.057Z,8.18
2018-01-03T07:42:16.053Z,8.32
2018-01-03T07:43:16.049Z,8.41
2018-01-03T07:44:16.045Z,8.36
2018-01-03T07:45:16.046Z,8.41
2018-01-03T07:46:16.037Z,8.41
2018-01-03T07:47:16.034Z,8.38
2018-01-03T07:48:16.028Z,8.36
2018-01-03T07:49:16.023Z,8.39
2018-01-03T07:50:16.019Z,8.38
2018-01-03T07:51:16.016Z,8.38
2018-01-03T07:52:16.011Z,8.36
2018-01-03T07:53:16.007Z,8.39
2018-01-03T07:54:16.003Z,8.31
2018-01-03T07:55:15.998Z,8.39
2018-01-03T07:56:15.995Z,8.41
2018-01-03T07:57:15.991Z,8.60
2018-01-03T07:58:15.987Z,8.86
2018-01-03T07:59:15.983Z,8.99
2018-01-03T08:00:15.980Z,8.96
2018-01-03T08:01:15.975Z,9.03
2018-01-03T08:02:15.971Z,9.05
2018-01-03T08:03:15.974Z,9.08
2018-01-03T08:04:15.965Z,9.00
2018-01-03T08:05:15.961Z,9.26
2018-01-03T08:06:15.957Z,9.64
2018-01-03T08:07:15.953Z,10.05
2018-01-03T08:08:15.950Z,10.65
2018-01-03T08:09:15.946Z,10.84
2018-01-03T08:10:15.943Z,11.35
2018-01-03T08:11:15.940Z,11.62
2018-01-03T08:12:15.937Z,11.63
2018-01-03T08:13:15.934Z,11.71
2018-01-03T08:14:15.928Z,11.78
2018-01-03T08:15:15.927Z,11.73
2018-01-03T08:16:15.925Z,11.74
2018-01-03T08:17:15.921Z,11.62
2018-01-03T08:18:15.918Z,11.60
2018-01-03T08:19:15.951Z,11.44
2018-01-03T08:20:15.914Z,11.43
2018-01-03T08:21:15.911Z,11.48
2018-01-03T08:22:15.908Z,11.51
2018-01-03T08:23:15.905Z,11.58
2018-01-03T08:24:15.903Z,11.80
2018-01-03T08:25:15.900Z,12.02
2018-01-03T08:26:15.897Z,12.03
2018-01-03T08:27:15.896Z,11.95
2018-01-03T08:28:15.893Z,11.83
2018-01-03T08:29:15.891Z,11.85
2018-01-03T08:30:15.892Z,11.77
2018-01-03T08:31:15.890Z,11.81
2018-01-03T08:32:15.885Z,11.73
2018-01-03T08:33:15.883Z,11.62
2018-01-03T08:34:15.882Z,11.73
2018-01-03T08:35:15.880Z,11.80
2018-01-03T08:36:15.879Z,11.86
2018-01-03T08:37:15.877Z,12.02
2018-01-03T08:38:15.876Z,12.17
2018-01-03T08:39:15.877Z,12.36
2018-01-03T08:40:15.872Z,12.44
2018-01-03T08:41:15.869Z,12.55
2018-01-03T08:42:15.873Z,12.87
2018-01-03T08:43:15.866Z,12.90
2018-01-03T08:44:15.865Z,13.01
2018-01-03T08:45:15.865Z,13.11
2018-01-03T08:46:15.863Z,13.13
2018-01-03T08:47:15.862Z,13.28
2018-01-03T08:48:15.862Z,13.30
2018-01-03T08:49:15.860Z,13.55
2018-01-03T08:50:15.859Z,13.42
2018-01-03T08:51:15.858Z,13.28
2018-01-03T08:52:15.858Z,13.01
2018-01-03T08:53:15.857Z,12.78
2018-01-03T08:54:15.892Z,12.61
2018-01-03T08:55:15.857Z,12.66
2018-01-03T08:56:15.856Z,12.55
2018-01-03T08:57:15.855Z,12.51
2018-01-03T08:58:15.855Z,12.43
2018-01-03T08:59:15.854Z,12.37
2018-01-03T09:00:15.854Z,12.37
2018-01-03T09:01:15.854Z,12.37
2018-01-03T09:02:15.853Z,12.43
2018-01-03T09:03:15.852Z,12.40
2018-01-03T09:04:15.852Z,12.35
2018-01-03T09:05:15.850Z,12.39
2018-01-03T09:06:15.849Z,12.51
2018-01-03T09:07:15.850Z,12.53
2018-01-03T09:08:15.848Z,12.69
2018-01-03T09:09:15.848Z,12.68
2018-01-03T09:10:15.847Z,12.66
2018-01-03T09:11:15.844Z,12.66
2018-01-03T09:12:15.845Z,12.76
2018-01-03T09:13:15.843Z,12.63
2018-01-03T09:14:15.843Z,12.78
2018-01-03T09:15:15.842Z,12.78
2018-01-03T09:16:15.841Z,12.81
2018-01-03T09:17:15.841Z,12.87
2018-01-03T09:18:15.838Z,12.93
2018-01-03T09:19:15.839Z,12.90
2018-01-03T09:20:15.838Z,13.01
2018-01-03T09:21:15.836Z,13.02
2018-01-03T09:22:15.837Z,13.03
2018-01-03T09:23:15.837Z,13.05
2018-01-03T09:24:15.835Z,12.98
2018-01-03T09:25:15.833Z,12.90
2018-01-03T09:26:15.833Z,12.87
2018-01-03T09:27:15.832Z,13.03
2018-01-03T09:28:15.832Z,13.16
2018-01-03T09:29:15.831Z,13.43
2018-01-03T09:30:15.829Z,13.57
2018-01-03T09:31:15.829Z,13.58
2018-01-03T09:32:15.830Z,13.49
2018-01-03T09:33:15.826Z,13.36
2018-01-03T09:34:15.827Z,13.19
2018-01-03T09:35:15.827Z,13.24
2018-01-03T09:36:15.828Z,13.11
2018-01-03T09:37:15.824Z,13.02
2018-01-03T09:38:15.827Z,12.95
2018-01-03T09:39:15.824Z,12.88
2018-01-03T09:40:15.823Z,12.83
2018-01-03T09:41:15.821Z,12.80
2018-01-03T09:42:15.821Z,12.66
2018-01-03T09:43:15.820Z,12.63
2018-01-03T09:44:15.819Z,12.57
2018-01-03T09:45:15.818Z,12.54
2018-01-03T09:46:15.817Z,12.23
2018-01-03T09:47:15.818Z,12.08
2018-01-03T09:48:15.816Z,11.91
2018-01-03T09:49:15.814Z,11.95
2018-01-03T09:50:15.813Z,12.05
2018-01-03T09:51:15.812Z,12.17
2018-01-03T09:52:15.812Z,12.15
2018-01-03T09:53:15.810Z,12.17
2018-01-03T09:54:15.808Z,12.07
2018-01-03T09:55:15.807Z,11.95
2018-01-03T09:56:15.807Z,11.91
2018-01-03T09:57:15.805Z,11.83
2018-01-03T09:58:15.803Z,11.68
2018-01-03T09:59:15.803Z,11.59
2018-01-03T10:00:15.801Z,11.53
2018-01-03T10:01:15.799Z,11.53
2018-01-03T10:02:15.844Z,11.59
2018-01-03T10:03:15.797Z,11.62
2018-01-03T10:04:15.797Z,11.59
2018-01-03T10:05:15.793Z,11.60
2018-01-03T10:06:15.792Z,11.59
2018-01-03T10:07:15.791Z,11.56
2018-01-03T10:08:15.790Z,11.45
2018-01-03T10:09:15.788Z,11.37
2018-01-03T10:10:15.803Z,11.31
2018-01-03T10:11:15.784Z,11.33
2018-01-03T10:12:15.783Z,11.34
2018-01-03T10:13:15.782Z,11.16
2018-01-03T10:14:15.779Z,11.23
2018-01-03T10:15:15.777Z,11.15
2018-01-03T10:16:15.774Z,11.01
2018-01-03T10:17:15.773Z,10.92
2018-01-03T10:18:15.770Z,10.76
2018-01-03T10:19:15.772Z,10.65
2018-01-03T10:20:15.769Z,10.55
2018-01-03T10:21:15.766Z,10.53
2018-01-03T10:22:15.764Z,10.25
2018-01-03T10:23:15.763Z,10.25
2018-01-03T10:24:15.762Z,10.15
2018-01-03T10:25:15.758Z,9.97
2018-01-03T10:26:15.755Z,9.88
2018-01-03T10:27:15.754Z,9.85
2018-01-03T10:28:15.753Z,9.64
2018-01-03T10:29:15.749Z,9.30
2018-01-03T10:30:15.747Z,9.11
2018-01-03T10:31:15.744Z,9.11
2018-01-03T10:32:15.741Z,9.40
2018-01-03T10:33:15.738Z,9.44
2018-01-03T10:34:15.735Z,9.51
2018-01-03T10:35:15.733Z,9.45
2018-01-03T10:36:15.730Z,9.47
2018-01-03T10:37:15.724Z,9.42
2018-01-03T10:38:15.723Z,9.54
2018-01-03T10:39:15.718Z,9.59
2018-01-03T10:40:15.717Z,9.51
2018-01-03T10:41:15.712Z,9.00
2018-01-03T10:42:15.709Z,8.59
2018-01-03T10:43:15.706Z,8.31
2018-01-03T10:44:15.705Z,8.08
2018-01-03T10:45:15.700Z,7.81
2018-01-03T10:46:15.696Z,7.56
2018-01-03T10:47:15.693Z,7.44
2018-01-03T10:48:15.689Z,7.41
2018-01-03T10:49:15.685Z,7.19
2018-01-03T10:50:15.682Z,7.14
2018-01-03T10:51:15.678Z,6.87
2018-01-03T10:52:15.680Z,6.74
2018-01-03T10:53:15.671Z,6.59
2018-01-03T10:54:15.668Z,6.47
2018-01-03T10:55:15.664Z,6.54
2018-01-03T10:56:15.660Z,6.46
2018-01-03T10:57:15.656Z,6.36
2018-01-03T10:58:15.652Z,6.32
2018-01-03T10:59:15.650Z,6.26
2018-01-03T11:00:15.645Z,6.22
2018-01-03T11:01:15.640Z,6.22
2018-01-03T11:02:15.635Z,6.12
2018-01-03T11:03:15.631Z,6.09
2018-01-03T11:04:15.627Z,6.01
2018-01-03T11:05:15.622Z,6.15
2018-01-03T11:06:15.619Z,6.01
2018-01-03T11:07:15.615Z,6.02
2018-01-03T11:08:15.611Z,6.09
2018-01-03T11:09:15.605Z,5.99
2018-01-03T11:10:15.601Z,5.87
2018-01-03T11:11:15.595Z,5.91
2018-01-03T11:12:15.591Z,5.95
2018-01-03T11:13:15.585Z,5.91
2018-01-03T11:14:15.581Z,6.01
2018-01-03T11:15:15.576Z,6.01
2018-01-03T11:16:15.578Z,5.92
2018-01-03T11:17:15.567Z,5.97
2018-01-03T11:18:15.563Z,6.01
2018-01-03T11:19:15.557Z,5.99
2018-01-03T11:20:15.558Z,6.02
2018-01-03T11:21:15.549Z,6.12
2018-01-03T11:22:15.544Z,6.07
2018-01-03T11:23:15.539Z,6.05
2018-01-03T11:24:15.533Z,6.02
2018-01-03T11:25:15.529Z,6.05
2018-01-03T11:26:15.525Z,6.10
2018-01-03T11:27:15.520Z,6.05
2018-01-03T11:28:15.515Z,6.05
2018-01-03T11:29:15.510Z,6.05
2018-01-03T11:30:15.506Z,5.99
2018-01-03T11:31:15.501Z,6.01
2018-01-03T11:32:15.498Z,5.99
2018-01-03T11:33:15.492Z,6.16
2018-01-03T11:34:15.488Z,6.15
2018-01-03T11:35:15.485Z,6.12
2018-01-03T11:36:15.480Z,6.17
2018-01-03T11:37:15.474Z,6.22
2018-01-03T11:38:15.469Z,6.22
2018-01-03T11:39:15.465Z,6.31
2018-01-03T11:40:15.469Z,6.25
2018-01-03T11:41:15.455Z,6.39
2018-01-03T11:42:15.453Z,6.36
2018-01-03T11:43:15.450Z,6.41
2018-01-03T11:44:15.444Z,6.41
2018-01-03T11:45:15.442Z,6.44
2018-01-03T11:46:15.435Z,6.47
2018-01-03T11:47:15.432Z,6.46
2018-01-03T11:48:15.428Z,6.52
2018-01-03T11:49:15.422Z,6.44
2018-01-03T11:50:15.419Z,6.38
2018-01-03T11:51:15.416Z,6.36
2018-01-03T11:52:15.411Z,6.26
2018-01-03T11:53:15.405Z,6.22
2018-01-03T11:54:15.400Z,6.32
2018-01-03T11:55:15.396Z,6.31
2018-01-03T11:56:15.392Z,6.19
2018-01-03T11:57:15.387Z,6.16
2018-01-03T11:58:15.384Z,6.09
2018-01-03T11:59:15.381Z,6.12
2018-01-03T12:00:15.375Z,6.15
2018-01-03T12:01:15.371Z,6.19
2018-01-03T12:02:15.367Z,6.16
2018-01-03T12:03:15.362Z,6.25
2018-01-03T12:04:15.359Z,6.22
2018-01-03T12:05:15.353Z,6.32
2018-01-03T12:06:15.349Z,6.28
2018-01-03T12:07:15.345Z,6.32
2018-01-03T12:08:15.341Z,6.32
2018-01-03T12:09:15.336Z,6.31
2018-01-03T12:10:15.333Z,6.38
2018-01-03T12:11:15.328Z,6.29
2018-01-03T12:12:15.326Z,6.15
2018-01-03T12:13:15.318Z,6.10
2018-01-03T12:14:15.315Z,6.09
2018-01-03T12:15:15.311Z,5.99
2018-01-03T12:16:15.309Z,6.07
2018-01-03T12:17:15.302Z,6.02
2018-01-03T12:18:15.299Z,5.94
2018-01-03T12:19:15.295Z,5.95
2018-01-03T12:20:15.290Z,5.97
2018-01-03T12:21:15.284Z,6.02
2018-01-03T12:22:15.280Z,5.98
2018-01-03T12:23:15.277Z,5.95
2018-01-03T12:24:15.271Z,5.87
2018-01-03T12:25:15.266Z,5.72
2018-01-03T12:26:15.261Z,5.64
2018-01-03T12:27:15.257Z,5.54
2018-01-03T12:28:15.253Z,5.37
2018-01-03T12:29:15.248Z,5.22
2018-01-03T12:30:15.242Z,5.07
2018-01-03T12:31:15.238Z,4.79
2018-01-03T12:32:15.233Z,4.82
2018-01-03T12:33:15.227Z,4.68
2018-01-03T12:34:15.222Z,4.57
2018-01-03T12:35:15.216Z,4.52
2018-01-03T12:36:15.211Z,4.52
2018-01-03T12:37:15.205Z,4.52
2018-01-03T12:38:15.201Z,4.36
2018-01-03T12:39:15.195Z,4.21
2018-01-03T12:40:15.195Z,4.13
2018-01-03T12:41:15.183Z,4.04
2018-01-03T12:42:15.177Z,3.94
2018-01-03T12:43:15.176Z,3.85
2018-01-03T12:44:15.166Z,3.86
2018-01-03T12:45:15.160Z,3.86
2018-01-03T12:46:15.153Z,3.86
2018-01-03T12:47:15.148Z,3.85
2018-01-03T12:48:15.143Z,3.82
2018-01-03T12:49:15.135Z,3.86
2018-01-03T12:50:15.130Z,3.84
2018-01-03T12:51:15.124Z,3.76
2018-01-03T12:52:15.118Z,3.85
2018-01-03T12:53:15.113Z,3.81
2018-01-03T12:54:15.105Z,3.71
2018-01-03T12:55:15.099Z,3.74
2018-01-03T12:56:15.093Z,3.70
2018-01-03T12:57:15.085Z,3.74
2018-01-03T12:58:15.080Z,3.70
2018-01-03T12:59:15.073Z,3.68
2018-01-03T13:00:15.068Z,3.64
2018-01-03T13:01:15.077Z,3.58
2018-01-03T13:02:15.053Z,3.66
2018-01-03T13:03:15.048Z,3.63
2018-01-03T13:04:15.041Z,3.63
2018-01-03T13:05:15.034Z,3.67
2018-01-03T13:06:15.028Z,3.67
2018-01-03T13:07:15.022Z,3.77
2018-01-03T13:08:15.017Z,3.73
2018-01-03T13:09:15.010Z,3.73
2018-01-03T13:10:15.004Z,3.73
2018-01-03T13:11:14.996Z,3.70
2018-01-03T13:12:14.989Z,3.68
2018-01-03T13:13:14.983Z,3.71